Time;durP1;ratioP1;P1;durP2;ratioP2;P2;SDS_P1;SDS_P2;PMS_P1;PMS_P2;Temp;Humidity;BMP_temperature;BMP_pressure;BME280_temperature;BME280_humidity;BME280_pressure;Samples;Min_cycle;Max_cycle;Signal;HPM_P1;HPM_P2
2023/10/31 00:01:34;;;;;;;7.90;1.50;;;;;;;;;;6277575;22;20103;-42
2023/10/31 00:04:01;;;;;;;8.68;1.67;;;;;;;;;;6239605;22;20072;-43
2023/10/31 00:06:29;;;;;;;6.25;1.48;;;;;;;;;;6281878;22;20084;-42
2023/10/31 00:08:57;;;;;;;12.73;2.22;;;;;;;;;;6228412;22;20544;-42
2023/10/31 00:11:24;;;;;;;9.48;1.63;;;;;;;;;;6270646;22;20091;-42
2023/10/31 00:13:54;;;;;;;14.63;1.70;;;;;;;;;;6275959;22;20101;-41
2023/10/31 00:16:21;;;;;;;8.90;1.65;;;;;;;;;;6266570;22;20426;-41
2023/10/31 00:18:49;;;;;;;8.57;1.63;;;;;;;;;;6276875;22;20008;-42
2023/10/31 00:21:17;;;;;;;11.48;1.90;;;;;;;;;;6272313;22;20453;-42
2023/10/31 00:23:55;;;;;;;12.57;1.85;;;;;;;;;;6277473;22;20015;-42
2023/10/31 00:26:23;;;;;;;12.43;1.30;;;;;;;;;;6275867;22;20019;-42
2023/10/31 00:28:53;;;;;;;12.55;2.15;;;;;;;;;;6260488;22;20019;-43
2023/10/31 00:31:21;;;;;;;12.65;2.03;;;;;;;;;;6279437;22;20460;-42
2023/10/31 00:33:49;;;;;;;7.18;1.52;;;;;;;;;;6261040;22;20018;-42
2023/10/31 00:36:16;;;;;;;13.10;2.38;;;;;;;;;;6271871;22;20015;-42
2023/10/31 00:38:44;;;;;;;11.93;2.13;;;;;;;;;;6271933;22;20019;-41
2023/10/31 00:41:17;;;;;;;9.63;2.00;;;;;;;;;;6267078;22;20097;-42
2023/10/31 00:43:45;;;;;;;7.82;1.70;;;;;;;;;;6270202;22;20015;-42
2023/10/31 00:46:16;;;;;;;9.40;1.70;;;;;;;;;;6263705;22;20041;-42
2023/10/31 00:48:43;;;;;;;15.05;2.47;;;;;;;;;;6276845;22;20011;-41
2023/10/31 00:51:11;;;;;;;11.83;2.00;;;;;;;;;;6268442;22;20346;-41
2023/10/31 00:53:39;;;;;;;7.65;1.40;;;;;;;;;;6271444;22;20056;-41
2023/10/31 00:56:07;;;;;;;8.23;1.90;;;;;;;;;;6270500;22;20069;-41
2023/10/31 00:58:35;;;;;;;7.35;1.83;;;;;;;;;;6273615;22;20015;-42
2023/10/31 01:01:02;;;;;;;8.07;1.58;;;;;;;;;;6262804;22;20448;-41
2023/10/31 01:03:32;;;;;;;7.67;1.73;;;;;;;;;;6279518;22;20025;-42
2023/10/31 01:05:59;;;;;;;9.00;2.25;;;;;;;;;;6267672;22;20019;-42
2023/10/31 01:08:27;;;;;;;6.60;1.67;;;;;;;;;;6276457;22;20026;-42
2023/10/31 01:10:57;;;;;;;7.50;1.50;;;;;;;;;;6266986;22;20082;-42
2023/10/31 01:13:25;;;;;;;6.72;1.60;;;;;;;;;;6276543;22;20085;-42
2023/10/31 01:15:53;;;;;;;10.83;2.00;;;;;;;;;;6267590;22;20011;-43
2023/10/31 01:18:21;;;;;;;12.18;2.55;;;;;;;;;;6275615;22;20128;-41
2023/10/31 01:20:50;;;;;;;10.27;1.80;;;;;;;;;;6265052;22;20211;-41
2023/10/31 01:23:17;;;;;;;10.48;2.05;;;;;;;;;;6275356;22;20370;-41
2023/10/31 01:25:45;;;;;;;8.70;1.75;;;;;;;;;;6269948;22;20018;-41
2023/10/31 01:28:13;;;;;;;7.47;1.57;;;;;;;;;;6274770;22;20012;-41
2023/10/31 01:30:40;;;;;;;9.02;2.10;;;;;;;;;;6272977;22;20113;-41
2023/10/31 01:33:08;;;;;;;8.93;2.25;;;;;;;;;;6272791;22;20441;-41
2023/10/31 01:35:36;;;;;;;8.48;1.80;;;;;;;;;;6270163;22;20453;-41
2023/10/31 01:38:06;;;;;;;9.35;1.70;;;;;;;;;;6268526;22;20384;-43
2023/10/31 01:40:33;;;;;;;10.37;1.87;;;;;;;;;;6272752;22;20015;-41
2023/10/31 01:43:01;;;;;;;7.65;1.55;;;;;;;;;;6266417;22;20015;-41
2023/10/31 01:45:29;;;;;;;7.60;1.80;;;;;;;;;;6278862;22;20116;-42
2023/10/31 01:47:57;;;;;;;8.82;2.13;;;;;;;;;;6263955;22;20604;-41
2023/10/31 01:50:25;;;;;;;10.40;2.08;;;;;;;;;;6277907;22;20012;-42
2023/10/31 01:52:53;;;;;;;7.27;1.80;;;;;;;;;;6271958;22;20357;-42
2023/10/31 01:55:22;;;;;;;6.22;1.50;;;;;;;;;;6268731;22;20015;-43
2023/10/31 01:57:50;;;;;;;12.20;2.25;;;;;;;;;;6261758;22;20750;-41
2023/10/31 02:00:18;;;;;;;8.45;1.50;;;;;;;;;;6275645;22;20380;-41
2023/10/31 02:02:46;;;;;;;9.13;1.60;;;;;;;;;;6267961;22;20042;-42
2023/10/31 02:05:14;;;;;;;10.50;1.37;;;;;;;;;;6231056;22;20026;-41
2023/10/31 02:07:45;;;;;;;9.15;1.30;;;;;;;;;;6264515;22;20094;-42
2023/10/31 02:10:13;;;;;;;8.20;1.30;;;;;;;;;;6245082;22;20412;-41
2023/10/31 02:12:42;;;;;;;6.22;0.90;;;;;;;;;;6256580;22;20015;-42
2023/10/31 02:15:11;;;;;;;7.88;1.00;;;;;;;;;;6277819;22;20045;-42
2023/10/31 02:17:39;;;;;;;5.67;0.90;;;;;;;;;;6265298;22;20446;-41
2023/10/31 02:20:08;;;;;;;4.15;0.70;;;;;;;;;;6248233;22;20588;-41
2023/10/31 02:22:38;;;;;;;9.95;1.33;;;;;;;;;;6246181;22;20050;-42
2023/10/31 02:25:16;;;;;;;5.82;0.90;;;;;;;;;;6273580;22;20011;-42
2023/10/31 02:27:44;;;;;;;9.05;0.85;;;;;;;;;;6236579;22;20138;-41
2023/10/31 02:30:12;;;;;;;11.00;1.23;;;;;;;;;;6272413;22;20015;-43
2023/10/31 02:32:41;;;;;;;3.97;0.70;;;;;;;;;;6261577;22;20455;-42
2023/10/31 02:35:09;;;;;;;5.32;1.20;;;;;;;;;;6281082;22;20015;-42
2023/10/31 02:37:38;;;;;;;8.25;1.40;;;;;;;;;;6276542;22;20019;-42
2023/10/31 02:40:08;;;;;;;7.30;1.17;;;;;;;;;;6254304;22;20292;-41
2023/10/31 02:42:38;;;;;;;7.63;0.90;;;;;;;;;;6274575;22;20477;-41
2023/10/31 02:45:08;;;;;;;5.88;0.82;;;;;;;;;;6280110;22;20042;-42
2023/10/31 02:47:36;;;;;;;7.65;1.23;;;;;;;;;;6276057;22;20124;-44
2023/10/31 02:50:06;;;;;;;8.95;0.98;;;;;;;;;;6285042;22;20035;-42
2023/10/31 02:52:34;;;;;;;8.77;1.20;;;;;;;;;;6274150;22;20015;-42
2023/10/31 02:55:03;;;;;;;4.67;0.80;;;;;;;;;;6282969;22;20020;-42
2023/10/31 02:57:31;;;;;;;8.50;0.88;;;;;;;;;;6277571;22;20513;-43
2023/10/31 03:00:07;;;;;;;5.93;0.60;;;;;;;;;;6282380;22;20022;-43
2023/10/31 03:02:35;;;;;;;6.78;1.30;;;;;;;;;;6280643;22;20026;-41
2023/10/31 03:05:04;;;;;;;8.63;1.23;;;;;;;;;;6270526;22;20031;-42
2023/10/31 03:07:32;;;;;;;6.37;0.77;;;;;;;;;;6273445;22;20015;-41
2023/10/31 03:09:59;;;;;;;8.43;1.00;;;;;;;;;;6281689;22;20022;-42
2023/10/31 03:12:28;;;;;;;7.22;0.77;;;;;;;;;;6275045;22;20015;-41
2023/10/31 03:14:56;;;;;;;5.70;1.30;;;;;;;;;;6281498;22;20021;-42
2023/10/31 03:17:29;;;;;;;9.68;1.67;;;;;;;;;;6280124;22;20471;-42
2023/10/31 03:19:57;;;;;;;9.40;1.10;;;;;;;;;;6281605;22;20313;-46
2023/10/31 03:22:25;;;;;;;9.10;1.50;;;;;;;;;;6277751;22;20015;-42
2023/10/31 03:24:52;;;;;;;7.57;1.15;;;;;;;;;;6275220;22;20370;-42
2023/10/31 03:27:20;;;;;;;9.80;0.90;;;;;;;;;;6281355;22;20060;-45
2023/10/31 03:29:49;;;;;;;11.27;1.73;;;;;;;;;;6272167;22;20015;-42
2023/10/31 03:32:17;;;;;;;9.30;0.90;;;;;;;;;;6282728;22;20015;-42
2023/10/31 03:34:44;;;;;;;10.32;1.30;;;;;;;;;;6271510;22;20571;-42
2023/10/31 03:37:12;;;;;;;11.50;1.23;;;;;;;;;;6281579;22;20030;-42
2023/10/31 03:39:40;;;;;;;6.82;1.77;;;;;;;;;;6267645;22;20027;-42
2023/10/31 03:42:07;;;;;;;9.43;1.40;;;;;;;;;;6274316;22;20011;-42
2023/10/31 03:44:35;;;;;;;6.43;1.30;;;;;;;;;;6285293;22;20015;-42
2023/10/31 03:47:05;;;;;;;11.10;1.50;;;;;;;;;;6267543;22;20404;-41
2023/10/31 03:49:32;;;;;;;9.38;1.80;;;;;;;;;;6289297;22;20523;-41
2023/10/31 03:52:00;;;;;;;12.98;2.00;;;;;;;;;;6242662;22;20019;-44
2023/10/31 03:54:30;;;;;;;7.43;1.95;;;;;;;;;;6276368;22;20043;-42
2023/10/31 03:56:57;;;;;;;8.20;1.93;;;;;;;;;;6265069;22;20015;-43
2023/10/31 03:59:25;;;;;;;7.75;1.73;;;;;;;;;;6276783;22;20023;-43
2023/10/31 04:01:52;;;;;;;8.75;2.17;;;;;;;;;;6273431;22;20022;-41
2023/10/31 04:04:21;;;;;;;9.25;1.77;;;;;;;;;;6280872;22;20045;-42
2023/10/31 04:06:50;;;;;;;11.20;2.33;;;;;;;;;;6239901;22;20517;-42
2023/10/31 04:09:17;;;;;;;11.70;2.17;;;;;;;;;;6278465;22;20118;-42
2023/10/31 04:11:45;;;;;;;11.02;2.33;;;;;;;;;;6278026;22;20019;-41
2023/10/31 04:14:13;;;;;;;9.48;2.78;;;;;;;;;;6273649;22;20211;-41
2023/10/31 04:16:45;;;;;;;14.88;2.40;;;;;;;;;;6269921;22;20086;-42
2023/10/31 04:19:13;;;;;;;11.93;2.67;;;;;;;;;;6281535;22;20163;-41
2023/10/31 04:21:42;;;;;;;8.63;1.57;;;;;;;;;;6271495;22;20499;-41
2023/10/31 04:24:10;;;;;;;11.00;2.22;;;;;;;;;;6280280;22;20012;-41
2023/10/31 04:26:38;;;;;;;13.55;2.63;;;;;;;;;;6258126;22;20362;-42
2023/10/31 04:29:05;;;;;;;12.18;2.45;;;;;;;;;;6281561;22;20076;-42
2023/10/31 04:31:37;;;;;;;18.92;2.67;;;;;;;;;;6280726;22;20476;-42
2023/10/31 04:34:12;;;;;;;12.50;2.00;;;;;;;;;;6285367;22;20341;-43
2023/10/31 04:36:39;;;;;;;9.88;2.00;;;;;;;;;;6249145;22;20590;-41
2023/10/31 04:39:09;;;;;;;12.88;2.58;;;;;;;;;;6269791;22;20442;-41
2023/10/31 04:41:38;;;;;;;11.80;2.60;;;;;;;;;;6278418;22;20015;-41
2023/10/31 04:44:06;;;;;;;11.20;2.70;;;;;;;;;;6274095;22;20015;-42
2023/10/31 04:47:00;;;;;;;9.97;2.53;;;;;;;;;;6273006;22;20015;-43
2023/10/31 04:49:30;;;;;;;10.27;2.38;;;;;;;;;;6276232;22;20053;-39
2023/10/31 04:51:57;;;;;;;11.68;2.67;;;;;;;;;;6246719;22;20022;-42
2023/10/31 04:54:26;;;;;;;10.90;3.33;;;;;;;;;;6272739;22;20019;-42
2023/10/31 04:56:55;;;;;;;12.32;3.58;;;;;;;;;;6274988;22;20015;-44
2023/10/31 04:59:22;;;;;;;13.87;3.13;;;;;;;;;;6238349;22;20822;-42
2023/10/31 05:01:50;;;;;;;14.13;3.33;;;;;;;;;;6273169;22;20428;-42
2023/10/31 05:04:22;;;;;;;16.63;3.30;;;;;;;;;;6277658;22;20015;-44
2023/10/31 05:06:50;;;;;;;15.95;3.22;;;;;;;;;;6275940;22;20015;-42
2023/10/31 05:09:18;;;;;;;18.08;3.85;;;;;;;;;;6278248;22;20030;-42
2023/10/31 05:11:47;;;;;;;13.27;3.83;;;;;;;;;;6279136;22;20049;-42
2023/10/31 05:14:15;;;;;;;17.13;4.30;;;;;;;;;;6268352;22;20298;-42
2023/10/31 05:16:45;;;;;;;15.70;5.05;;;;;;;;;;6286321;22;20068;-42
2023/10/31 05:19:13;;;;;;;14.18;4.18;;;;;;;;;;6273116;22;20025;-42
2023/10/31 05:21:40;;;;;;;11.75;4.07;;;;;;;;;;6283306;22;20029;-43
2023/10/31 05:24:08;;;;;;;12.70;4.13;;;;;;;;;;6265583;22;20751;-42
2023/10/31 05:26:37;;;;;;;13.52;3.90;;;;;;;;;;6283412;22;20049;-42
2023/10/31 05:29:06;;;;;;;12.10;4.00;;;;;;;;;;6276141;22;20012;-43
2023/10/31 05:31:33;;;;;;;16.80;4.30;;;;;;;;;;6251884;22;20405;-43
2023/10/31 05:34:01;;;;;;;15.10;4.20;;;;;;;;;;6272913;22;20488;-43
2023/10/31 05:36:29;;;;;;;14.37;4.40;;;;;;;;;;6286552;22;20015;-42
2023/10/31 05:38:56;;;;;;;15.45;4.60;;;;;;;;;;6266380;22;20204;-42
2023/10/31 05:41:24;;;;;;;11.60;3.92;;;;;;;;;;6288354;22;20023;-43
2023/10/31 05:43:52;;;;;;;13.57;3.50;;;;;;;;;;6269941;22;20011;-43
2023/10/31 05:46:21;;;;;;;9.25;3.38;;;;;;;;;;6276835;22;20015;-43
2023/10/31 05:48:50;;;;;;;14.47;3.43;;;;;;;;;;6273887;22;20047;-42
2023/10/31 05:51:18;;;;;;;15.13;4.10;;;;;;;;;;6273606;22;20081;-42
2023/10/31 05:53:47;;;;;;;12.02;3.90;;;;;;;;;;6263530;22;20019;-43
2023/10/31 05:56:16;;;;;;;24.38;4.88;;;;;;;;;;6274208;22;20492;-42
2023/10/31 05:58:44;;;;;;;17.63;4.05;;;;;;;;;;6242921;22;20042;-42
2023/10/31 06:01:16;;;;;;;12.03;3.80;;;;;;;;;;6270095;22;20019;-43
2023/10/31 06:03:45;;;;;;;11.95;4.30;;;;;;;;;;6274576;22;20142;-42
2023/10/31 06:06:13;;;;;;;13.48;3.75;;;;;;;;;;6267348;22;20523;-42
2023/10/31 06:08:40;;;;;;;14.43;3.67;;;;;;;;;;6255710;22;20023;-42
2023/10/31 06:11:08;;;;;;;12.63;3.47;;;;;;;;;;6263597;22;20509;-42
2023/10/31 06:13:37;;;;;;;11.73;3.20;;;;;;;;;;6278767;22;20334;-43
2023/10/31 06:16:06;;;;;;;14.95;3.65;;;;;;;;;;6268323;22;20385;-42
2023/10/31 06:18:33;;;;;;;13.93;3.20;;;;;;;;;;6271882;22;20061;-42
2023/10/31 06:21:03;;;;;;;12.73;2.85;;;;;;;;;;6268931;22;20026;-42
2023/10/31 06:23:31;;;;;;;13.05;3.53;;;;;;;;;;6260004;22;20019;-42
2023/10/31 06:26:01;;;;;;;16.87;3.50;;;;;;;;;;6268535;22;20016;-42
2023/10/31 06:28:34;;;;;;;14.05;3.03;;;;;;;;;;6271191;22;20106;-42
2023/10/31 06:31:07;;;;;;;11.77;2.80;;;;;;;;;;6258974;22;20019;-43
2023/10/31 06:33:34;;;;;;;12.95;3.10;;;;;;;;;;6269959;22;20046;-42
2023/10/31 06:36:06;;;;;;;12.05;3.53;;;;;;;;;;6269820;22;20011;-43
2023/10/31 06:38:34;;;;;;;15.40;3.13;;;;;;;;;;6263430;22;20011;-43
2023/10/31 06:41:02;;;;;;;15.75;3.50;;;;;;;;;;6279971;22;20019;-42
2023/10/31 06:43:29;;;;;;;13.00;3.30;;;;;;;;;;6267795;22;20060;-42
2023/10/31 06:46:03;;;;;;;11.75;3.40;;;;;;;;;;6270132;22;20015;-42
2023/10/31 06:48:30;;;;;;;12.95;3.42;;;;;;;;;;6262159;22;20065;-43
2023/10/31 06:50:58;;;;;;;16.33;4.87;;;;;;;;;;6263101;22;20261;-42
2023/10/31 06:53:27;;;;;;;17.92;5.82;;;;;;;;;;6270427;22;20460;-43
2023/10/31 06:55:56;;;;;;;11.55;3.88;;;;;;;;;;6264447;22;20015;-43
2023/10/31 06:58:23;;;;;;;19.83;4.15;;;;;;;;;;6266900;22;20019;-43
2023/10/31 07:00:51;;;;;;;15.68;3.90;;;;;;;;;;6260618;22;20026;-42
2023/10/31 07:03:19;;;;;;;14.10;3.97;;;;;;;;;;6274158;22;20019;-46
2023/10/31 07:05:47;;;;;;;17.35;3.97;;;;;;;;;;6268168;22;20026;-43
2023/10/31 07:08:15;;;;;;;15.25;3.78;;;;;;;;;;6266863;22;20019;-43
2023/10/31 07:10:51;;;;;;;14.63;3.63;;;;;;;;;;6278714;22;20429;-42
2023/10/31 07:13:19;;;;;;;17.00;3.97;;;;;;;;;;6285670;22;20015;-45
2023/10/31 07:15:47;;;;;;;14.53;4.30;;;;;;;;;;6259375;22;20046;-43
2023/10/31 07:18:14;;;;;;;14.73;3.90;;;;;;;;;;6277267;22;20239;-43
2023/10/31 07:20:42;;;;;;;16.63;5.15;;;;;;;;;;6271050;22;20066;-42
2023/10/31 07:23:10;;;;;;;17.38;4.90;;;;;;;;;;6248322;22;20019;-42
2023/10/31 07:25:45;;;;;;;18.02;4.10;;;;;;;;;;6274529;22;20043;-42
2023/10/31 07:28:14;;;;;;;14.10;4.17;;;;;;;;;;6279118;22;20022;-42
2023/10/31 07:30:42;;;;;;;16.23;4.30;;;;;;;;;;6269336;22;20015;-42
2023/10/31 07:33:10;;;;;;;13.38;4.38;;;;;;;;;;6247072;22;20026;-44
2023/10/31 07:35:40;;;;;;;18.55;4.90;;;;;;;;;;6257960;22;20023;-44
2023/10/31 07:38:07;;;;;;;13.23;4.25;;;;;;;;;;6281241;22;20059;-43
2023/10/31 07:40:35;;;;;;;15.17;4.80;;;;;;;;;;6271810;22;20015;-43
2023/10/31 07:43:03;;;;;;;14.43;4.65;;;;;;;;;;6273843;22;20454;-43
2023/10/31 07:45:37;;;;;;;18.55;5.30;;;;;;;;;;6274472;22;20015;-42
2023/10/31 07:48:05;;;;;;;18.65;5.45;;;;;;;;;;6281715;22;20012;-43
2023/10/31 07:50:33;;;;;;;15.23;5.10;;;;;;;;;;6265586;22;20434;-43
2023/10/31 07:53:01;;;;;;;15.03;3.77;;;;;;;;;;6275061;22;20019;-42
2023/10/31 07:55:29;;;;;;;15.20;4.07;;;;;;;;;;6263510;22;20015;-42
2023/10/31 07:57:56;;;;;;;13.27;4.20;;;;;;;;;;6266551;22;20642;-42
2023/10/31 08:00:26;;;;;;;13.27;3.70;;;;;;;;;;6275223;22;20698;-42
2023/10/31 08:03:06;;;;;;;19.17;5.18;;;;;;;;;;6263188;22;20019;-42
2023/10/31 08:05:34;;;;;;;15.80;4.50;;;;;;;;;;6276377;22;20447;-42
2023/10/31 08:08:06;;;;;;;13.43;4.30;;;;;;;;;;6239124;22;20061;-43
2023/10/31 08:10:35;;;;;;;14.75;3.65;;;;;;;;;;6245310;22;20031;-42
2023/10/31 08:13:03;;;;;;;13.13;4.35;;;;;;;;;;6273509;22;20070;-42
2023/10/31 08:15:34;;;;;;;17.98;4.50;;;;;;;;;;6244443;22;20026;-42
2023/10/31 08:18:05;;;;;;;15.23;4.90;;;;;;;;;;6265690;22;20015;-42
2023/10/31 08:20:33;;;;;;;16.73;4.85;;;;;;;;;;6276044;22;20446;-42
2023/10/31 08:23:01;;;;;;;14.75;4.60;;;;;;;;;;6269258;22;20452;-42
2023/10/31 08:25:29;;;;;;;16.45;4.72;;;;;;;;;;6267323;22;20019;-43
2023/10/31 08:27:57;;;;;;;12.10;4.88;;;;;;;;;;6275107;22;20065;-42
2023/10/31 08:30:25;;;;;;;12.03;4.10;;;;;;;;;;6271744;22;20019;-42
2023/10/31 08:32:53;;;;;;;13.77;4.03;;;;;;;;;;6272010;22;20242;-42
2023/10/31 08:35:26;;;;;;;19.17;3.83;;;;;;;;;;6284315;22;20057;-44
2023/10/31 08:37:54;;;;;;;11.88;3.10;;;;;;;;;;6263089;22;20011;-43
2023/10/31 08:40:22;;;;;;;10.18;3.10;;;;;;;;;;6271724;22;20026;-43
2023/10/31 08:43:00;;;;;;;10.17;2.80;;;;;;;;;;6276813;22;20015;-42
2023/10/31 08:45:28;;;;;;;9.20;2.75;;;;;;;;;;6258945;22;20073;-42
2023/10/31 08:47:56;;;;;;;12.40;2.47;;;;;;;;;;6263917;22;20015;-42
2023/10/31 08:50:24;;;;;;;12.02;2.33;;;;;;;;;;6265778;22;20019;-44
2023/10/31 08:52:53;;;;;;;10.00;2.20;;;;;;;;;;6270735;22;20046;-42
2023/10/31 08:55:21;;;;;;;15.97;4.00;;;;;;;;;;6264108;22;20022;-42
2023/10/31 08:57:52;;;;;;;7.55;2.58;;;;;;;;;;6270795;22;20024;-42
2023/10/31 09:00:19;;;;;;;7.20;2.70;;;;;;;;;;6247402;22;20433;-42
2023/10/31 09:02:50;;;;;;;12.43;1.60;;;;;;;;;;6265305;22;20023;-44
2023/10/31 09:05:18;;;;;;;7.35;2.20;;;;;;;;;;6270327;22;20019;-43
2023/10/31 09:07:46;;;;;;;5.67;1.57;;;;;;;;;;6234178;22;20134;-43
2023/10/31 09:10:21;;;;;;;5.65;1.13;;;;;;;;;;6266768;22;20016;-42
2023/10/31 09:12:48;;;;;;;8.00;1.52;;;;;;;;;;6258827;22;20081;-43
2023/10/31 09:15:18;;;;;;;9.20;1.30;;;;;;;;;;6210093;22;20340;-42
2023/10/31 09:17:48;;;;;;;11.75;1.40;;;;;;;;;;6230961;22;20015;-42
2023/10/31 09:20:18;;;;;;;8.40;0.90;;;;;;;;;;6253805;22;20068;-43
2023/10/31 09:22:45;;;;;;;6.72;0.90;;;;;;;;;;6264820;22;20026;-42
2023/10/31 09:25:13;;;;;;;8.05;0.88;;;;;;;;;;6271065;22;20019;-43
2023/10/31 09:27:51;;;;;;;4.18;0.73;;;;;;;;;;6273097;22;20035;-42
2023/10/31 09:30:19;;;;;;;7.45;0.85;;;;;;;;;;6241646;22;20154;-42
2023/10/31 09:32:47;;;;;;;8.80;1.43;;;;;;;;;;6261860;22;20023;-45
2023/10/31 09:35:15;;;;;;;4.88;0.80;;;;;;;;;;6267590;22;20012;-43
2023/10/31 09:37:43;;;;;;;5.88;1.02;;;;;;;;;;6265720;22;20057;-42
2023/10/31 09:40:11;;;;;;;6.10;0.50;;;;;;;;;;6269440;22;20019;-44
2023/10/31 09:42:39;;;;;;;6.53;0.80;;;;;;;;;;6232311;22;20026;-44
2023/10/31 09:45:09;;;;;;;7.80;1.10;;;;;;;;;;6263671;22;20015;-43
2023/10/31 09:47:37;;;;;;;6.50;0.90;;;;;;;;;;6270192;22;20011;-44
2023/10/31 09:50:08;;;;;;;10.48;0.98;;;;;;;;;;6268161;22;20011;-42
2023/10/31 09:52:37;;;;;;;9.50;1.08;;;;;;;;;;6274342;22;20053;-43
2023/10/31 09:55:06;;;;;;;5.65;1.35;;;;;;;;;;6262725;22;20107;-42
2023/10/31 09:57:33;;;;;;;5.67;0.90;;;;;;;;;;6274040;22;20019;-45
2023/10/31 10:00:01;;;;;;;4.32;0.75;;;;;;;;;;6256549;22;20110;-44
2023/10/31 10:02:30;;;;;;;7.20;1.40;;;;;;;;;;6272823;22;20019;-44
2023/10/31 10:04:59;;;;;;;3.75;0.70;;;;;;;;;;6253338;22;20011;-46
2023/10/31 10:07:27;;;;;;;5.85;0.90;;;;;;;;;;6243758;22;20043;-48
2023/10/31 10:09:57;;;;;;;5.23;1.33;;;;;;;;;;6260347;22;20094;-44
2023/10/31 10:12:24;;;;;;;4.28;0.68;;;;;;;;;;6247565;22;20450;-43
2023/10/31 10:14:52;;;;;;;7.40;0.93;;;;;;;;;;6229149;22;20382;-43
2023/10/31 10:17:26;;;;;;;6.85;0.73;;;;;;;;;;6271362;22;20029;-43
2023/10/31 10:20:07;;;;;;;6.03;0.80;;;;;;;;;;6269746;22;20346;-44
2023/10/31 10:22:40;;;;;;;8.10;1.10;;;;;;;;;;6269572;22;20015;-44
2023/10/31 10:25:11;;;;;;;9.13;0.85;;;;;;;;;;6259277;22;20021;-42
2023/10/31 10:27:40;;;;;;;6.65;1.20;;;;;;;;;;6259016;22;20418;-42
2023/10/31 10:30:09;;;;;;;6.38;1.05;;;;;;;;;;6270411;22;20015;-43
2023/10/31 10:32:37;;;;;;;7.22;1.30;;;;;;;;;;6268515;22;20023;-43
2023/10/31 10:35:07;;;;;;;7.73;1.33;;;;;;;;;;6252725;22;20478;-44
2023/10/31 10:37:39;;;;;;;6.55;1.20;;;;;;;;;;6256987;22;20711;-43
2023/10/31 10:40:08;;;;;;;5.88;1.05;;;;;;;;;;6237551;22;20049;-43
2023/10/31 10:42:42;;;;;;;9.65;1.48;;;;;;;;;;6270396;22;20050;-42
2023/10/31 10:45:11;;;;;;;3.95;0.90;;;;;;;;;;6260276;22;20015;-42
2023/10/31 10:47:40;;;;;;;5.27;1.07;;;;;;;;;;6256129;22;20517;-43
2023/10/31 10:50:11;;;;;;;4.63;0.88;;;;;;;;;;6259903;22;20064;-43
2023/10/31 10:52:43;;;;;;;6.78;1.15;;;;;;;;;;6269083;22;20448;-42
2023/10/31 10:55:12;;;;;;;3.70;0.80;;;;;;;;;;6266751;22;20282;-44
2023/10/31 10:58:06;;;;;;;4.60;1.27;;;;;;;;;;6274150;22;20318;-43
2023/10/31 11:00:34;;;;;;;5.27;0.83;;;;;;;;;;6276017;22;20464;-43
2023/10/31 11:03:02;;;;;;;6.88;1.05;;;;;;;;;;6266630;22;20176;-42
2023/10/31 11:05:31;;;;;;;4.65;0.60;;;;;;;;;;6274319;22;20011;-42
2023/10/31 11:08:05;;;;;;;6.55;1.13;;;;;;;;;;6268288;22;20339;-43
2023/10/31 11:10:33;;;;;;;5.63;0.90;;;;;;;;;;6280246;22;20011;-42
2023/10/31 11:13:01;;;;;;;4.93;1.03;;;;;;;;;;6264198;22;20401;-42
2023/10/31 11:15:29;;;;;;;3.75;0.52;;;;;;;;;;6282467;22;20011;-43
2023/10/31 11:18:02;;;;;;;5.00;0.50;;;;;;;;;;6268343;22;20102;-43
2023/10/31 11:20:32;;;;;;;7.07;0.73;;;;;;;;;;6278799;22;20015;-43
2023/10/31 11:23:04;;;;;;;4.82;0.70;;;;;;;;;;6271909;22;20458;-43
2023/10/31 11:25:32;;;;;;;5.00;0.50;;;;;;;;;;6278648;22;20019;-43
2023/10/31 11:28:12;;;;;;;4.70;0.70;;;;;;;;;;6246306;22;20392;-42
2023/10/31 11:30:41;;;;;;;3.25;0.60;;;;;;;;;;6252733;22;20015;-42
2023/10/31 11:33:12;;;;;;;3.78;0.73;;;;;;;;;;6249105;22;20015;-43
2023/10/31 11:35:41;;;;;;;4.03;0.60;;;;;;;;;;6246777;22;20019;-43
2023/10/31 11:38:11;;;;;;;4.70;0.60;;;;;;;;;;6256974;22;20019;-42
2023/10/31 11:40:59;;;;;;;5.20;0.68;;;;;;;;;;6249725;22;20021;-43
2023/10/31 11:43:35;;;;;;;5.13;0.50;;;;;;;;;;6239423;22;20312;-43
2023/10/31 11:46:04;;;;;;;5.95;0.50;;;;;;;;;;6257534;22;20018;-42
2023/10/31 11:48:51;;;;;;;6.95;0.40;;;;;;;;;;6212126;22;20354;-43
2023/10/31 11:51:20;;;;;;;5.27;1.17;;;;;;;;;;6248495;22;20321;-43
2023/10/31 11:53:49;;;;;;;5.82;0.60;;;;;;;;;;6257320;22;20011;-44
2023/10/31 11:56:17;;;;;;;4.25;0.70;;;;;;;;;;6224295;22;20462;-43
2023/10/31 11:58:45;;;;;;;5.40;0.80;;;;;;;;;;6249074;22;20015;-44
2023/10/31 12:01:13;;;;;;;7.22;0.60;;;;;;;;;;6247061;22;20145;-42
2023/10/31 12:03:42;;;;;;;3.43;0.40;;;;;;;;;;6248758;22;20309;-43
2023/10/31 12:06:18;;;;;;;5.40;0.70;;;;;;;;;;6253441;22;20382;-44
2023/10/31 12:08:50;;;;;;;7.57;0.73;;;;;;;;;;6250876;22;20016;-42
2023/10/31 12:11:19;;;;;;;4.30;0.40;;;;;;;;;;6253493;22;20030;-42
2023/10/31 12:13:55;;;;;;;5.78;0.70;;;;;;;;;;6239017;22;20769;-43
2023/10/31 12:16:26;;;;;;;5.67;1.23;;;;;;;;;;6259383;22;20019;-42
2023/10/31 12:18:59;;;;;;;6.22;0.63;;;;;;;;;;6243952;22;20642;-43
2023/10/31 12:21:35;;;;;;;5.30;0.50;;;;;;;;;;6257207;22;20071;-43
2023/10/31 12:24:06;;;;;;;5.05;0.43;;;;;;;;;;6232783;22;20031;-42
2023/10/31 12:26:34;;;;;;;8.52;0.95;;;;;;;;;;6253337;22;20042;-43
2023/10/31 12:29:09;;;;;;;2.40;0.40;;;;;;;;;;6249774;22;20458;-43
2023/10/31 12:31:43;;;;;;;5.18;0.90;;;;;;;;;;6246966;22;20016;-43
2023/10/31 12:34:11;;;;;;;6.53;0.90;;;;;;;;;;6243844;22;20046;-43
2023/10/31 12:36:39;;;;;;;5.32;0.90;;;;;;;;;;6255776;22;20038;-42
2023/10/31 12:39:09;;;;;;;3.80;0.70;;;;;;;;;;6249097;22;20169;-43
2023/10/31 12:41:47;;;;;;;5.63;0.73;;;;;;;;;;6259387;22;20310;-42
2023/10/31 12:44:17;;;;;;;4.88;0.60;;;;;;;;;;6247754;22;20030;-42
2023/10/31 12:46:47;;;;;;;7.65;0.70;;;;;;;;;;6253439;22;20077;-44
2023/10/31 12:49:17;;;;;;;4.85;0.70;;;;;;;;;;6261920;22;20104;-42
2023/10/31 12:52:03;;;;;;;3.03;1.00;;;;;;;;;;6246187;22;20106;-42
2023/10/31 12:54:37;;;;;;;2.67;0.57;;;;;;;;;;6247728;22;20387;-44
2023/10/31 12:57:07;;;;;;;6.95;0.60;;;;;;;;;;6224143;22;20616;-42
2023/10/31 12:59:36;;;;;;;20.83;1.70;;;;;;;;;;6250455;22;20015;-44
2023/10/31 13:02:06;;;;;;;9.02;0.50;;;;;;;;;;6230161;22;20011;-44
2023/10/31 13:04:34;;;;;;;11.95;1.00;;;;;;;;;;6247554;22;20019;-43
2023/10/31 13:07:03;;;;;;;4.70;0.50;;;;;;;;;;6208731;22;20031;-44
2023/10/31 13:09:31;;;;;;;5.40;0.40;;;;;;;;;;6254013;22;20450;-44
2023/10/31 13:12:02;;;;;;;3.00;0.50;;;;;;;;;;6241543;22;20015;-43
2023/10/31 13:14:31;;;;;;;7.25;0.70;;;;;;;;;;6247223;22;20011;-43
2023/10/31 13:17:00;;;;;;;6.47;0.60;;;;;;;;;;6249864;22;20539;-43
2023/10/31 13:19:28;;;;;;;4.67;0.50;;;;;;;;;;6251230;22;20037;-44
2023/10/31 13:21:56;;;;;;;3.92;0.50;;;;;;;;;;6245612;22;20034;-44
2023/10/31 13:24:35;;;;;;;8.90;0.68;;;;;;;;;;6247553;22;20598;-44
2023/10/31 13:27:06;;;;;;;5.60;0.70;;;;;;;;;;6228728;22;20443;-44
2023/10/31 13:29:34;;;;;;;5.13;0.73;;;;;;;;;;6250115;22;20424;-44
2023/10/31 13:32:03;;;;;;;4.37;0.70;;;;;;;;;;6222421;22;20184;-45
2023/10/31 13:34:32;;;;;;;5.60;0.70;;;;;;;;;;6253422;22;20015;-48
2023/10/31 13:37:01;;;;;;;6.80;1.05;;;;;;;;;;6250995;22;20019;-43
2023/10/31 13:39:28;;;;;;;5.30;0.90;;;;;;;;;;6240009;22;20015;-43
2023/10/31 13:41:56;;;;;;;4.78;0.90;;;;;;;;;;6244796;22;20383;-44
2023/10/31 13:44:25;;;;;;;5.50;0.93;;;;;;;;;;6255900;22;20023;-44
2023/10/31 13:46:54;;;;;;;6.82;0.90;;;;;;;;;;6244424;22;20023;-44
2023/10/31 13:49:22;;;;;;;5.22;0.70;;;;;;;;;;6258714;22;20037;-44
2023/10/31 13:51:54;;;;;;;4.72;0.70;;;;;;;;;;6245819;22;20357;-43
2023/10/31 13:54:21;;;;;;;4.82;1.00;;;;;;;;;;6257591;22;20065;-43
2023/10/31 13:56:50;;;;;;;3.80;0.80;;;;;;;;;;6247758;22;20745;-43
2023/10/31 13:59:19;;;;;;;5.30;1.10;;;;;;;;;;6250527;22;20019;-44
2023/10/31 14:01:48;;;;;;;4.35;0.82;;;;;;;;;;6249102;22;20472;-43
2023/10/31 14:04:16;;;;;;;4.00;0.60;;;;;;;;;;6218813;22;20023;-43
2023/10/31 14:06:44;;;;;;;6.40;0.70;;;;;;;;;;6217074;22;20777;-43
2023/10/31 14:09:13;;;;;;;5.77;0.93;;;;;;;;;;6247586;22;20499;-44
2023/10/31 14:11:41;;;;;;;3.95;0.68;;;;;;;;;;6250778;22;20445;-46
2023/10/31 14:14:10;;;;;;;4.30;0.60;;;;;;;;;;6230959;22;20023;-44
2023/10/31 14:16:38;;;;;;;5.85;0.90;;;;;;;;;;6255177;22;20026;-43
2023/10/31 14:19:07;;;;;;;6.18;0.77;;;;;;;;;;6182502;22;20023;-43
2023/10/31 14:21:35;;;;;;;7.30;1.13;;;;;;;;;;6189033;23;20681;-45
2023/10/31 14:24:04;;;;;;;4.63;0.90;;;;;;;;;;6170058;22;20034;-43
2023/10/31 14:26:40;;;;;;;7.78;0.77;;;;;;;;;;6177934;22;20066;-43
2023/10/31 14:29:08;;;;;;;4.22;0.60;;;;;;;;;;6187420;22;20023;-43
2023/10/31 14:31:41;;;;;;;4.80;0.90;;;;;;;;;;6179008;22;20020;-44
2023/10/31 14:34:11;;;;;;;4.50;0.73;;;;;;;;;;6148982;22;20020;-43
2023/10/31 14:36:39;;;;;;;5.50;0.75;;;;;;;;;;6174101;23;20016;-46
2023/10/31 14:39:08;;;;;;;4.82;0.77;;;;;;;;;;6178634;22;20980;-43
2023/10/31 14:41:36;;;;;;;5.47;0.63;;;;;;;;;;6192674;22;20019;-43
2023/10/31 14:44:35;;;;;;;9.13;1.40;;;;;;;;;;6146184;22;20142;-43
2023/10/31 14:47:04;;;;;;;9.00;1.10;;;;;;;;;;6177548;22;20035;-43
2023/10/31 14:49:33;;;;;;;7.85;0.90;;;;;;;;;;6194424;22;20459;-43
2023/10/31 14:52:01;;;;;;;7.13;0.90;;;;;;;;;;6172627;22;20024;-44